createdAt,value
2023-02-12T00:01:53.690Z,80.04
2023-02-12T00:04:25.967Z,80.16
2023-02-12T00:06:58.378Z,80.20
2023-02-12T00:09:30.849Z,79.71
2023-02-12T00:12:03.162Z,79.92
2023-02-12T00:14:35.855Z,79.68
2023-02-12T00:17:08.071Z,80.06
2023-02-12T00:19:40.755Z,80.05
2023-02-12T00:22:13.402Z,79.93
2023-02-12T00:24:45.901Z,79.68
2023-02-12T00:27:18.305Z,79.40
2023-02-12T00:29:50.704Z,79.78
2023-02-12T00:32:25.182Z,79.60
2023-02-12T00:34:57.820Z,79.51
2023-02-12T00:37:30.160Z,79.48
2023-02-12T00:40:05.508Z,79.57
2023-02-12T00:42:37.786Z,79.70
2023-02-12T00:45:11.526Z,79.56
2023-02-12T00:47:43.880Z,79.46
2023-02-12T00:50:16.364Z,79.55
2023-02-12T00:52:48.785Z,79.35
2023-02-12T00:55:22.416Z,79.02
2023-02-12T00:57:54.712Z,79.35
2023-02-12T01:00:27.531Z,79.32
2023-02-12T01:03:00.033Z,79.07
2023-02-12T01:05:32.609Z,79.26
2023-02-12T01:08:05.868Z,79.19
2023-02-12T01:10:38.234Z,79.07
2023-02-12T01:13:12.162Z,78.97
2023-02-12T01:15:45.332Z,79.00
2023-02-12T01:18:17.876Z,78.79
2023-02-12T01:20:50.323Z,78.95
2023-02-12T01:23:22.565Z,78.72
2023-02-12T01:25:55.292Z,78.96
2023-02-12T01:28:27.957Z,78.95
2023-02-12T01:31:00.451Z,78.86
2023-02-12T01:33:32.956Z,78.66
2023-02-12T01:36:05.503Z,78.85
2023-02-12T01:38:38.024Z,78.52
2023-02-12T01:41:13.238Z,78.68
2023-02-12T01:43:46.575Z,78.72
2023-02-12T01:46:19.445Z,78.70
2023-02-12T01:48:51.851Z,78.62
2023-02-12T01:51:25.539Z,78.52
2023-02-12T01:54:00.893Z,78.34
2023-02-12T01:56:34.506Z,78.17
2023-02-12T01:59:07.618Z,78.18
2023-02-12T02:01:40.194Z,78.19
2023-02-12T02:04:16.818Z,78.30
2023-02-12T02:06:52.833Z,78.14
2023-02-12T02:09:25.902Z,77.79
2023-02-12T02:12:18.390Z,77.59
2023-02-12T02:14:52.298Z,77.25
2023-02-12T02:17:37.748Z,77.65
2023-02-12T02:20:33.797Z,77.59
2023-02-12T02:23:35.225Z,77.97
2023-02-12T02:26:35.068Z,77.42
2023-02-12T02:29:31.753Z,77.70
2023-02-12T02:32:09.143Z,77.43
2023-02-12T02:34:49.417Z,77.63
2023-02-12T02:37:28.755Z,77.22
2023-02-12T02:40:06.960Z,77.16
2023-02-12T02:42:45.014Z,76.94
2023-02-12T02:45:21.985Z,76.84
2023-02-12T02:47:57.234Z,77.05
2023-02-12T02:50:31.987Z,76.92
2023-02-12T02:53:08.389Z,76.76
2023-02-12T02:55:45.385Z,76.71
2023-02-12T02:58:22.396Z,76.75
2023-02-12T03:01:00.476Z,76.85
2023-02-12T03:03:39.415Z,76.87
2023-02-12T03:06:16.612Z,76.27
2023-02-12T03:08:52.148Z,76.69
2023-02-12T03:11:28.015Z,76.70
2023-02-12T03:14:06.250Z,76.40
2023-02-12T03:16:45.393Z,76.25
2023-02-12T03:19:21.544Z,76.24
2023-02-12T03:21:59.967Z,76.36
2023-02-12T03:24:37.373Z,76.45
2023-02-12T03:27:15.004Z,76.27
2023-02-12T03:29:47.432Z,76.29
2023-02-12T03:32:31.632Z,76.29
2023-02-12T03:35:16.338Z,75.99
2023-02-12T03:37:58.657Z,76.03
2023-02-12T03:40:36.176Z,76.12
2023-02-12T03:43:16.163Z,75.90
2023-02-12T03:45:53.059Z,75.98
2023-02-12T03:48:30.280Z,75.75
2023-02-12T03:51:12.401Z,76.04
2023-02-12T03:53:44.791Z,75.79
2023-02-12T03:56:23.656Z,75.75
2023-02-12T03:58:56.036Z,75.68
2023-02-12T04:01:29.910Z,75.78
2023-02-12T04:04:04.802Z,75.80
2023-02-12T04:06:37.466Z,75.57
2023-02-12T04:09:13.766Z,75.61
2023-02-12T04:12:00.192Z,75.45
2023-02-12T04:14:42.518Z,75.53
2023-02-12T04:17:27.583Z,75.74
2023-02-12T04:20:11.701Z,75.24
2023-02-12T04:22:55.462Z,75.26
2023-02-12T04:25:44.509Z,75.50
2023-02-12T04:28:26.906Z,75.42
2023-02-12T04:31:05.144Z,75.31
2023-02-12T04:33:47.418Z,75.40
2023-02-12T04:36:26.306Z,75.14
2023-02-12T04:39:03.457Z,75.03
2023-02-12T04:41:36.249Z,75.38
2023-02-12T04:44:20.891Z,75.26
2023-02-12T04:46:53.727Z,74.94
2023-02-12T04:49:26.825Z,74.73
2023-02-12T04:51:59.498Z,74.91
2023-02-12T04:54:31.797Z,74.86
2023-02-12T04:57:04.317Z,74.91
2023-02-12T04:59:36.688Z,74.80
2023-02-12T05:02:08.846Z,74.83
2023-02-12T05:04:40.998Z,74.85
2023-02-12T05:07:13.530Z,74.67
2023-02-12T05:09:45.931Z,74.59
2023-02-12T05:12:19.293Z,74.78
2023-02-12T05:14:51.422Z,74.69
2023-02-12T05:17:24.826Z,74.50
2023-02-12T05:19:57.047Z,74.44
2023-02-12T05:22:29.202Z,74.28
2023-02-12T05:25:01.547Z,74.55
2023-02-12T05:27:34.961Z,74.32
2023-02-12T05:30:10.684Z,74.38
2023-02-12T05:32:42.994Z,74.48
2023-02-12T05:35:15.344Z,74.35
2023-02-12T05:37:47.504Z,74.35
2023-02-12T05:40:22.976Z,74.19
2023-02-12T05:42:55.044Z,74.29
2023-02-12T05:45:28.178Z,74.22
2023-02-12T05:48:00.394Z,74.21
2023-02-12T05:50:32.736Z,74.02
2023-02-12T05:53:05.302Z,74.05
2023-02-12T05:55:37.699Z,74.10
2023-02-12T05:58:11.006Z,73.89
2023-02-12T06:00:44.287Z,73.92
2023-02-12T06:03:16.656Z,73.94
2023-02-12T06:05:53.899Z,73.87
2023-02-12T06:08:26.490Z,73.74
2023-02-12T06:11:03.436Z,73.80
2023-02-12T06:13:36.052Z,73.95
2023-02-12T06:16:17.274Z,73.93
2023-02-12T06:18:50.117Z,73.68
2023-02-12T06:21:23.907Z,73.78
2023-02-12T06:23:56.530Z,73.92
2023-02-12T06:26:29.308Z,73.80
2023-02-12T06:29:02.210Z,73.81
2023-02-12T06:31:36.991Z,73.81
2023-02-12T06:34:12.470Z,73.83
2023-02-12T06:36:46.400Z,73.61
2023-02-12T06:39:19.445Z,73.65
2023-02-12T06:41:51.938Z,73.57
2023-02-12T06:44:24.362Z,73.57
2023-02-12T06:46:57.945Z,73.74
2023-02-12T06:49:30.508Z,73.51
2023-02-12T06:52:03.513Z,73.66
2023-02-12T06:54:36.004Z,73.68
2023-02-12T06:57:08.492Z,73.72
2023-02-12T06:59:40.929Z,73.70
2023-02-12T07:02:13.920Z,73.84
2023-02-12T07:04:46.228Z,73.87
2023-02-12T07:07:18.692Z,73.93
2023-02-12T07:09:51.235Z,73.92
2023-02-12T07:12:23.483Z,73.51
2023-02-12T07:14:55.848Z,73.71
2023-02-12T07:17:30.277Z,73.77
2023-02-12T07:20:02.670Z,73.66
2023-02-12T07:22:36.597Z,73.86
2023-02-12T07:25:09.424Z,73.82
2023-02-12T07:27:41.926Z,74.16
2023-02-12T07:30:15.875Z,73.73
2023-02-12T07:32:48.239Z,73.83
2023-02-12T07:35:20.607Z,73.85
2023-02-12T07:37:52.933Z,74.05
2023-02-12T07:40:25.224Z,73.96
2023-02-12T07:42:59.109Z,74.00
2023-02-12T07:45:31.443Z,74.00
2023-02-12T07:48:04.001Z,73.98
2023-02-12T07:50:36.373Z,74.08
2023-02-12T07:53:08.779Z,74.04
2023-02-12T07:55:41.104Z,74.23
2023-02-12T07:58:13.397Z,74.12
2023-02-12T08:00:45.730Z,74.19
2023-02-12T08:03:18.221Z,74.35
2023-02-12T08:05:50.539Z,74.23
2023-02-12T08:08:22.860Z,74.19
2023-02-12T08:10:56.806Z,74.24
2023-02-12T08:13:29.118Z,73.96
2023-02-12T08:16:05.199Z,74.13
2023-02-12T08:18:38.137Z,74.21
2023-02-12T08:21:12.722Z,74.40
2023-02-12T08:23:45.298Z,74.29
2023-02-12T08:26:19.846Z,74.43
2023-02-12T08:28:54.611Z,74.38
2023-02-12T08:31:28.882Z,74.25
2023-02-12T08:34:01.789Z,74.08
2023-02-12T08:36:39.223Z,74.18
2023-02-12T08:39:11.969Z,74.09
2023-02-12T08:41:44.574Z,73.86
2023-02-12T08:44:17.341Z,73.89
2023-02-12T08:46:51.424Z,73.98
2023-02-12T08:49:27.408Z,73.61
2023-02-12T08:52:02.715Z,73.83
2023-02-12T08:54:35.065Z,73.94
2023-02-12T08:57:07.330Z,73.70
2023-02-12T08:59:39.660Z,73.91
2023-02-12T09:02:13.279Z,73.56
2023-02-12T09:04:45.627Z,73.90
2023-02-12T09:07:18.077Z,73.93
2023-02-12T09:09:50.449Z,73.69
2023-02-12T09:12:23.001Z,73.57
2023-02-12T09:14:55.342Z,73.47
2023-02-12T09:17:28.797Z,73.57
2023-02-12T09:20:02.394Z,73.48
2023-02-12T09:22:38.217Z,73.21
2023-02-12T09:25:11.030Z,73.24
2023-02-12T09:27:43.388Z,73.15
2023-02-12T09:30:18.881Z,72.98
2023-02-12T09:32:51.204Z,73.10
2023-02-12T09:35:23.806Z,73.06
2023-02-12T09:37:56.466Z,73.01
2023-02-12T09:40:37.211Z,72.91
2023-02-12T09:43:20.971Z,72.90
2023-02-12T09:46:01.939Z,72.62
2023-02-12T09:48:55.116Z,72.65
2023-02-12T09:51:29.501Z,72.69
2023-02-12T09:54:07.639Z,72.60
2023-02-12T09:56:42.620Z,72.46
2023-02-12T09:59:32.990Z,72.44
2023-02-12T10:02:08.030Z,72.50
2023-02-12T10:04:51.595Z,72.16
2023-02-12T10:07:42.299Z,72.37
2023-02-12T10:10:28.808Z,72.20
2023-02-12T10:13:05.306Z,72.18
2023-02-12T10:15:47.481Z,72.18
2023-02-12T10:18:51.431Z,72.03
2023-02-12T10:21:37.869Z,72.13
2023-02-12T10:24:25.705Z,71.71
2023-02-12T10:27:01.631Z,72.15
2023-02-12T10:29:39.877Z,71.86
2023-02-12T10:32:20.803Z,71.92
2023-02-12T10:34:53.825Z,71.84
2023-02-12T10:37:41.187Z,71.77
2023-02-12T10:40:21.791Z,71.78
2023-02-12T10:42:55.524Z,71.91
2023-02-12T10:45:33.048Z,71.80
2023-02-12T10:48:12.542Z,71.59
2023-02-12T10:50:57.116Z,71.56
2023-02-12T10:53:34.335Z,71.59
2023-02-12T10:56:17.453Z,71.53
2023-02-12T10:58:59.511Z,71.23
2023-02-12T11:01:34.571Z,71.58
2023-02-12T11:07:09.859Z,70.87
2023-02-12T11:09:46.677Z,71.37
2023-02-12T11:12:32.244Z,71.25
2023-02-12T11:15:14.594Z,71.25
2023-02-12T11:17:57.520Z,71.12
2023-02-12T11:20:33.646Z,71.27
2023-02-12T11:23:08.042Z,71.38
2023-02-12T11:25:55.647Z,70.95
2023-02-12T11:28:29.003Z,71.18
2023-02-12T11:31:03.534Z,71.00
2023-02-12T11:33:38.074Z,71.14
2023-02-12T11:36:22.222Z,71.07
2023-02-12T11:38:56.393Z,70.94
2023-02-12T11:41:34.695Z,70.77
2023-02-12T11:44:14.007Z,70.84
2023-02-12T11:46:52.160Z,70.88
2023-02-12T11:49:28.541Z,70.40
2023-02-12T11:52:04.028Z,70.76
2023-02-12T11:54:41.896Z,70.62
2023-02-12T11:57:39.243Z,70.51
2023-02-12T12:00:18.813Z,70.49
2023-02-12T12:03:03.716Z,70.62
2023-02-12T12:05:41.775Z,70.49
2023-02-12T12:08:26.309Z,70.31
2023-02-12T12:11:04.086Z,70.65
2023-02-12T12:13:40.657Z,70.57
2023-02-12T12:16:34.157Z,70.32
2023-02-12T12:19:29.870Z,70.58
2023-02-12T12:22:10.130Z,70.57
2023-02-12T12:24:46.416Z,70.63
2023-02-12T12:27:42.621Z,70.56
2023-02-12T12:30:22.880Z,70.42
2023-02-12T12:32:59.278Z,70.55
2023-02-12T12:35:45.550Z,70.36
2023-02-12T12:38:29.503Z,70.39
2023-02-12T12:41:09.186Z,70.33
2023-02-12T12:43:52.213Z,70.29
2023-02-12T12:46:35.157Z,70.16
2023-02-12T12:49:30.255Z,70.11
2023-02-12T12:52:30.800Z,69.88
2023-02-12T12:55:24.165Z,70.25
2023-02-12T12:58:07.234Z,70.23
2023-02-12T13:00:50.932Z,70.42
2023-02-12T13:03:53.898Z,70.06
2023-02-12T13:06:52.815Z,70.23
2023-02-12T13:09:50.173Z,69.94
2023-02-12T13:12:44.562Z,70.21
2023-02-12T13:15:26.827Z,70.09
2023-02-12T13:18:05.594Z,69.96
2023-02-12T13:20:48.890Z,70.00
2023-02-12T13:23:26.976Z,70.02
2023-02-12T13:26:08.923Z,70.24
2023-02-12T13:28:43.933Z,70.00
2023-02-12T13:31:32.966Z,69.90
2023-02-12T13:34:08.905Z,69.74
2023-02-12T13:36:40.006Z,69.60
2023-02-12T13:39:24.068Z,70.01
2023-02-12T13:42:17.744Z,69.75
2023-02-12T13:45:01.309Z,70.12
2023-02-12T13:47:44.566Z,70.05
2023-02-12T13:50:43.092Z,70.05
2023-02-12T13:53:23.507Z,70.02
2023-02-12T13:56:07.340Z,70.06
2023-02-12T13:58:50.678Z,70.01
2023-02-12T14:01:43.309Z,69.92
2023-02-12T14:04:27.782Z,70.10
2023-02-12T14:07:03.507Z,69.95
2023-02-12T14:09:40.691Z,70.13
2023-02-12T14:12:16.451Z,70.00
2023-02-12T14:14:51.808Z,69.99
2023-02-12T14:17:54.085Z,69.64
2023-02-12T14:20:29.685Z,69.77
2023-02-12T14:23:20.078Z,70.11
2023-02-12T14:26:00.344Z,70.21
2023-02-12T14:28:44.099Z,70.22
2023-02-12T14:31:32.998Z,70.25
2023-02-12T14:34:52.140Z,70.37
2023-02-12T14:37:42.653Z,70.37
2023-02-12T14:40:47.247Z,70.22
2023-02-12T14:43:56.290Z,70.24
2023-02-12T14:46:49.764Z,70.18
2023-02-12T14:49:28.021Z,70.19
2023-02-12T14:52:05.149Z,69.91
2023-02-12T14:54:42.564Z,69.72
2023-02-12T14:57:25.308Z,69.83
2023-02-12T15:00:00.342Z,69.94
2023-02-12T15:02:36.820Z,70.15
2023-02-12T15:05:19.719Z,70.05
2023-02-12T15:07:58.488Z,70.33
2023-02-12T15:10:35.718Z,70.44
2023-02-12T15:13:19.663Z,70.37
2023-02-12T15:15:57.545Z,70.41
2023-02-12T15:18:43.769Z,70.63
2023-02-12T15:21:23.614Z,70.27
2023-02-12T15:24:05.822Z,70.51
2023-02-12T15:26:42.275Z,69.96
2023-02-12T15:29:25.522Z,70.39
2023-02-12T15:31:59.776Z,70.41
2023-02-12T15:34:36.301Z,70.49
2023-02-12T15:37:10.777Z,70.35
2023-02-12T15:39:48.186Z,70.53
2023-02-12T15:42:32.805Z,70.49
2023-02-12T15:45:24.487Z,70.69
2023-02-12T15:48:08.596Z,70.70
2023-02-12T15:50:50.802Z,70.98
2023-02-12T15:53:24.310Z,71.03
2023-02-12T15:55:56.914Z,70.79
2023-02-12T15:58:31.865Z,70.75
2023-02-12T16:01:07.694Z,70.80
2023-02-12T16:03:42.119Z,70.83
2023-02-12T16:06:16.952Z,70.94
2023-02-12T16:08:54.310Z,70.73
2023-02-12T16:11:29.753Z,71.07
2023-02-12T16:14:05.635Z,70.93
2023-02-12T16:16:49.072Z,71.29
2023-02-12T16:19:23.489Z,71.59
2023-02-12T16:22:01.826Z,71.26
2023-02-12T16:24:38.502Z,71.46
2023-02-12T16:27:19.092Z,71.56
2023-02-12T16:29:53.615Z,71.42
2023-02-12T16:32:37.469Z,71.21
2023-02-12T16:35:27.777Z,71.18
2023-02-12T16:38:04.861Z,71.19
2023-02-12T16:40:38.763Z,71.41
2023-02-12T16:43:28.449Z,71.62
2023-02-12T16:46:09.285Z,71.49
2023-02-12T16:48:44.254Z,72.02
2023-02-12T16:51:28.174Z,71.71
2023-02-12T16:54:01.869Z,71.87
2023-02-12T16:56:38.778Z,71.70
2023-02-12T16:59:12.029Z,71.72
2023-02-12T17:01:57.170Z,71.68
2023-02-12T17:04:28.010Z,71.69
2023-02-12T17:07:00.412Z,71.49
2023-02-12T17:09:32.579Z,71.38
2023-02-12T17:12:04.868Z,71.67
2023-02-12T17:14:37.069Z,71.42
2023-02-12T17:17:09.554Z,71.94
2023-02-12T17:19:42.093Z,71.84
2023-02-12T17:22:22.586Z,72.07
2023-02-12T17:24:54.856Z,72.09
2023-02-12T17:27:27.136Z,72.07
2023-02-12T17:29:59.298Z,72.04
2023-02-12T17:32:32.051Z,72.06
2023-02-12T17:35:06.201Z,72.37
2023-02-12T17:37:38.462Z,72.19
2023-02-12T17:40:15.373Z,72.12
2023-02-12T17:42:47.540Z,71.68
2023-02-12T17:45:20.010Z,72.30
2023-02-12T17:47:52.139Z,71.91
2023-02-12T17:50:24.424Z,72.22
2023-02-12T17:52:56.644Z,72.22
2023-02-12T17:55:28.905Z,72.59
2023-02-12T17:58:03.215Z,72.44
2023-02-12T18:00:35.432Z,72.77
2023-02-12T18:03:07.877Z,72.44
2023-02-12T18:05:45.907Z,72.67
2023-02-12T18:08:18.236Z,72.66
2023-02-12T18:10:50.445Z,72.44
2023-02-12T18:13:22.726Z,72.39
2023-02-12T18:15:55.021Z,72.28
2023-02-12T18:18:27.320Z,72.68
2023-02-12T18:20:59.751Z,72.50
2023-02-12T18:23:32.004Z,72.66
2023-02-12T18:26:08.217Z,73.11
2023-02-12T18:28:41.056Z,73.14
2023-02-12T18:31:13.983Z,72.93
2023-02-12T18:33:46.398Z,73.13
2023-02-12T18:36:20.560Z,73.23
2023-02-12T18:38:54.208Z,73.07
2023-02-12T18:41:28.365Z,73.08
2023-02-12T18:44:01.093Z,72.82
2023-02-12T18:46:34.043Z,72.92
2023-02-12T18:49:07.418Z,73.37
2023-02-12T18:51:41.299Z,73.13
2023-02-12T18:54:15.348Z,73.50
2023-02-12T18:56:50.776Z,73.62
2023-02-12T18:59:26.270Z,73.68
2023-02-12T19:01:59.521Z,73.45
2023-02-12T19:04:31.935Z,73.82
2023-02-12T19:07:04.066Z,73.85
2023-02-12T19:09:36.542Z,73.77
2023-02-12T19:12:11.211Z,73.96
2023-02-12T19:14:43.410Z,73.51
2023-02-12T19:17:15.599Z,73.80
2023-02-12T19:19:50.371Z,73.78
2023-02-12T19:22:22.775Z,74.21
2023-02-12T19:24:55.002Z,74.02
2023-02-12T19:27:27.188Z,74.08
2023-02-12T19:30:01.078Z,74.18
2023-02-12T19:32:33.563Z,74.07
2023-02-12T19:35:05.949Z,74.47
2023-02-12T19:37:38.187Z,75.01
2023-02-12T19:40:12.573Z,74.89
2023-02-12T19:42:44.749Z,74.89
2023-02-12T19:45:17.080Z,74.65
2023-02-12T19:47:50.921Z,74.65
2023-02-12T19:50:23.117Z,74.22
2023-02-12T19:52:55.263Z,74.55
2023-02-12T19:55:27.469Z,74.81
2023-02-12T19:57:59.763Z,74.78
2023-02-12T20:00:31.971Z,74.97
2023-02-12T20:03:04.290Z,75.01
2023-02-12T20:05:44.533Z,75.12
2023-02-12T20:08:16.716Z,75.32
2023-02-12T20:10:49.016Z,75.88
2023-02-12T20:13:22.660Z,75.68
2023-02-12T20:15:54.862Z,75.78
2023-02-12T20:18:26.975Z,75.75
2023-02-12T20:20:59.162Z,75.82
2023-02-12T20:23:31.275Z,75.63
2023-02-12T20:26:06.843Z,76.22
2023-02-12T20:28:39.741Z,75.85
2023-02-12T20:31:14.186Z,76.05
2023-02-12T20:33:47.154Z,76.10
2023-02-12T20:36:19.346Z,76.00
2023-02-12T20:38:56.992Z,75.84
2023-02-12T20:41:30.016Z,76.23
2023-02-12T20:44:04.211Z,76.49
2023-02-12T20:46:39.399Z,76.43
2023-02-12T20:49:13.921Z,76.61
2023-02-12T20:51:46.862Z,76.60
2023-02-12T20:54:19.306Z,76.58
2023-02-12T20:56:52.217Z,76.53
2023-02-12T20:59:24.622Z,76.59
2023-02-12T21:01:56.833Z,76.39
2023-02-12T21:04:31.754Z,76.68
2023-02-12T21:07:04.603Z,76.90
2023-02-12T21:09:36.796Z,76.86
2023-02-12T21:12:09.279Z,76.82
2023-02-12T21:14:41.646Z,77.04
2023-02-12T21:17:13.832Z,77.08
2023-02-12T21:19:46.103Z,77.56
2023-02-12T21:22:18.630Z,77.58
2023-02-12T21:24:50.874Z,77.49
2023-02-12T21:27:23.172Z,77.37
2023-02-12T21:29:55.416Z,77.38
2023-02-12T21:32:27.935Z,77.32
2023-02-12T21:35:00.288Z,77.70
2023-02-12T21:37:32.574Z,77.49
2023-02-12T21:40:05.069Z,77.51
2023-02-12T21:42:37.245Z,77.40
2023-02-12T21:45:11.836Z,77.95
2023-02-12T21:47:44.035Z,77.82
2023-02-12T21:50:16.372Z,78.03
2023-02-12T21:52:48.680Z,78.18
2023-02-12T21:55:20.927Z,78.22
2023-02-12T21:57:53.281Z,77.94
2023-02-12T22:00:25.990Z,77.96
2023-02-12T22:02:58.257Z,78.16
2023-02-12T22:05:34.521Z,78.40
2023-02-12T22:08:07.003Z,78.22
2023-02-12T22:10:39.807Z,78.25
2023-02-12T22:13:11.979Z,78.36
2023-02-12T22:15:44.168Z,78.47
2023-02-12T22:18:16.511Z,78.70
2023-02-12T22:20:48.706Z,78.75
2023-02-12T22:23:21.008Z,79.03
2023-02-12T22:25:53.555Z,79.14
2023-02-12T22:28:25.901Z,78.90
2023-02-12T22:30:58.376Z,78.81
2023-02-12T22:33:30.848Z,78.94
2023-02-12T22:36:05.958Z,78.89
2023-02-12T22:38:39.385Z,78.96
2023-02-12T22:41:12.197Z,79.15
2023-02-12T22:43:44.665Z,79.13
2023-02-12T22:46:17.826Z,78.99
2023-02-12T22:48:50.089Z,79.27
2023-02-12T22:51:26.684Z,79.49
2023-02-12T22:53:59.194Z,79.79
2023-02-12T22:56:31.472Z,79.55
2023-02-12T22:59:04.200Z,79.52
2023-02-12T23:01:36.407Z,79.49
2023-02-12T23:04:09.314Z,79.20
2023-02-12T23:06:41.575Z,79.28
2023-02-12T23:09:16.948Z,79.29
2023-02-12T23:11:49.982Z,79.58
2023-02-12T23:14:22.356Z,79.64
2023-02-12T23:16:54.779Z,79.62
2023-02-12T23:19:27.227Z,79.85
2023-02-12T23:21:59.559Z,79.95
2023-02-12T23:24:31.921Z,80.02
2023-02-12T23:27:04.146Z,80.40
2023-02-12T23:29:36.307Z,80.43
2023-02-12T23:32:08.894Z,79.98
2023-02-12T23:34:42.358Z,79.62
2023-02-12T23:37:14.481Z,79.93
2023-02-12T23:39:46.702Z,79.92
2023-02-12T23:42:19.233Z,80.00
2023-02-12T23:44:51.375Z,80.44
2023-02-12T23:47:23.491Z,80.49
2023-02-12T23:49:55.748Z,80.33
2023-02-12T23:52:27.956Z,80.66
2023-02-12T23:55:00.133Z,80.72
2023-02-12T23:57:32.319Z,80.74
